Time;durP1;ratioP1;P1;durP2;ratioP2;P2;SDS_P1;SDS_P2;PMS_P1;PMS_P2;Temp;Humidity;BMP_temperature;BMP_pressure;BME280_temperature;BME280_humidity;BME280_pressure;Samples;Min_cycle;Max_cycle;Signal;HPM_P1;HPM_P2
2023/12/12 00:01:34;;;;;;;3.53;1.40;;;5.20;99.90;;;;;;4998537;28;20014;-84
2023/12/12 00:04:00;;;;;;;2.93;1.50;;;5.20;99.90;;;;;;4998615;28;20033;-85
2023/12/12 00:06:26;;;;;;;4.83;1.40;;;5.10;99.90;;;;;;5000582;28;20032;-84
2023/12/12 00:08:51;;;;;;;3.30;1.33;;;5.10;99.90;;;;;;5001577;28;21144;-83
2023/12/12 00:11:17;;;;;;;4.80;1.37;;;5.10;99.90;;;;;;5002027;28;20112;-85
2023/12/12 00:13:42;;;;;;;4.13;1.37;;;5.10;99.90;;;;;;5001796;28;20030;-84
2023/12/12 00:16:11;;;;;;;4.37;1.40;;;5.10;99.90;;;;;;4999954;28;20030;-85
2023/12/12 00:18:36;;;;;;;3.57;1.40;;;5.10;99.90;;;;;;4985350;28;20030;-85
2023/12/12 00:21:02;;;;;;;4.30;1.60;;;5.20;99.90;;;;;;5003396;28;20029;-85
2023/12/12 00:23:28;;;;;;;5.17;1.67;;;5.10;99.90;;;;;;4985648;28;20509;-84
2023/12/12 00:25:53;;;;;;;3.87;1.70;;;5.20;99.90;;;;;;5002872;28;20042;-85
2023/12/12 00:28:19;;;;;;;4.37;1.53;;;5.20;99.90;;;;;;5001087;28;20592;-85
2023/12/12 00:30:45;;;;;;;6.30;1.50;;;5.20;99.90;;;;;;5003105;28;20035;-85
2023/12/12 00:33:10;;;;;;;2.77;1.30;;;5.20;99.90;;;;;;5001733;28;20032;-85
2023/12/12 00:35:36;;;;;;;5.03;1.70;;;5.20;99.90;;;;;;5002074;28;20469;-85
2023/12/12 00:38:01;;;;;;;3.53;1.30;;;5.20;99.90;;;;;;5003941;28;20049;-85
2023/12/12 00:40:27;;;;;;;2.20;1.27;;;5.20;99.90;;;;;;5002066;28;20041;-85
2023/12/12 00:42:52;;;;;;;2.40;1.23;;;5.20;99.90;;;;;;5004962;28;20037;-85
2023/12/12 00:45:18;;;;;;;2.87;1.30;;;5.30;99.90;;;;;;5004739;28;20026;-85
2023/12/12 00:47:44;;;;;;;5.53;2.90;;;5.40;99.90;;;;;;5000891;28;20038;-84
2023/12/12 00:50:09;;;;;;;5.10;1.60;;;5.50;99.90;;;;;;5003959;28;20061;-85
2023/12/12 00:52:35;;;;;;;4.50;1.30;;;5.50;99.90;;;;;;5003922;28;20057;-85
2023/12/12 00:55:01;;;;;;;4.43;1.37;;;5.60;99.90;;;;;;5003526;28;20120;-85
2023/12/12 00:57:27;;;;;;;3.93;1.40;;;5.60;99.90;;;;;;5002142;28;20057;-84
2023/12/12 00:59:53;;;;;;;3.20;1.33;;;5.70;99.90;;;;;;5005236;28;20034;-84
2023/12/12 01:02:25;;;;;;;3.10;1.10;;;5.70;99.90;;;;;;5002412;28;20249;-85
2023/12/12 01:04:51;;;;;;;4.70;1.30;;;5.70;99.90;;;;;;5003355;28;20030;-85
2023/12/12 01:07:17;;;;;;;4.53;1.70;;;5.70;99.90;;;;;;5004787;28;20027;-85
2023/12/12 01:09:43;;;;;;;2.90;1.23;;;5.70;99.90;;;;;;5001172;28;20121;-85
2023/12/12 01:12:08;;;;;;;3.50;1.33;;;5.70;99.90;;;;;;5003556;28;20046;-85
2023/12/12 01:14:34;;;;;;;4.33;1.30;;;5.70;99.90;;;;;;5004956;28;20765;-85
2023/12/12 01:17:00;;;;;;;3.27;1.30;;;5.80;99.90;;;;;;5001501;28;20502;-85
2023/12/12 01:19:26;;;;;;;4.20;1.30;;;5.70;99.90;;;;;;4983693;28;20027;-85
2023/12/12 01:21:51;;;;;;;4.00;1.40;;;5.70;99.90;;;;;;5000633;28;20057;-85
2023/12/12 01:24:17;;;;;;;3.70;1.13;;;5.80;99.90;;;;;;5002053;28;20030;-85
2023/12/12 01:26:42;;;;;;;1.87;1.13;;;5.80;99.90;;;;;;4999489;28;20057;-85
2023/12/12 01:29:08;;;;;;;2.20;1.47;;;5.80;99.90;;;;;;5001863;28;20026;-85
2023/12/12 01:31:33;;;;;;;5.90;1.83;;;5.80;99.90;;;;;;4998476;28;20528;-86
2023/12/12 01:33:58;;;;;;;3.83;1.27;;;5.80;99.90;;;;;;5000654;28;20034;-85
2023/12/12 01:36:24;;;;;;;2.70;1.10;;;5.70;99.90;;;;;;5000923;28;20029;-84
2023/12/12 01:38:50;;;;;;;2.73;1.20;;;5.70;99.90;;;;;;5001419;28;21441;-85
2023/12/12 01:41:15;;;;;;;2.20;1.37;;;5.70;99.90;;;;;;4999860;28;20489;-85
2023/12/12 01:43:41;;;;;;;3.50;1.27;;;5.60;99.90;;;;;;4999626;28;21405;-84
2023/12/12 01:46:08;;;;;;;3.43;1.63;;;5.60;99.90;;;;;;4999095;28;20025;-85
2023/12/12 01:48:34;;;;;;;4.60;1.73;;;5.60;99.90;;;;;;4999202;28;20121;-85
2023/12/12 01:51:01;;;;;;;3.17;1.53;;;5.50;99.90;;;;;;4997931;28;20026;-85
2023/12/12 01:53:32;;;;;;;3.83;1.70;;;5.50;99.90;;;;;;4997430;28;20392;-85
2023/12/12 01:56:01;;;;;;;3.77;1.77;;;5.50;99.90;;;;;;4995648;28;20448;-86
2023/12/12 01:58:27;;;;;;;5.30;1.67;;;5.40;99.90;;;;;;4996527;28;20669;-85
2023/12/12 02:00:52;;;;;;;3.70;1.40;;;5.40;99.90;;;;;;5002128;28;20104;-84
2023/12/12 02:03:19;;;;;;;2.43;1.30;;;5.40;99.90;;;;;;5001705;28;20018;-85
2023/12/12 02:05:47;;;;;;;2.87;1.50;;;5.40;99.90;;;;;;5000374;28;20049;-86
2023/12/12 02:08:13;;;;;;;2.87;1.20;;;5.40;99.90;;;;;;4999959;28;20030;-85
2023/12/12 02:10:39;;;;;;;4.23;1.43;;;5.40;99.90;;;;;;5001234;28;20030;-85
2023/12/12 02:13:05;;;;;;;2.77;1.10;;;5.40;99.90;;;;;;5003042;28;20073;-84
2023/12/12 02:15:31;;;;;;;4.97;1.30;;;5.40;99.90;;;;;;4997995;28;20485;-85
2023/12/12 02:17:56;;;;;;;2.00;1.20;;;5.40;99.90;;;;;;4999391;28;20371;-85
2023/12/12 02:20:22;;;;;;;2.80;1.30;;;5.40;99.90;;;;;;5000172;28;20033;-85
2023/12/12 02:22:47;;;;;;;3.47;1.50;;;5.40;99.90;;;;;;5002208;28;20025;-85
2023/12/12 02:25:17;;;;;;;4.00;1.37;;;5.40;99.90;;;;;;5000455;28;20033;-85
2023/12/12 02:27:42;;;;;;;4.90;1.40;;;5.40;99.90;;;;;;5002003;28;20031;-85
2023/12/12 02:30:08;;;;;;;3.60;1.43;;;5.40;99.90;;;;;;4983170;28;20396;-85
2023/12/12 02:32:34;;;;;;;3.43;1.40;;;5.40;99.90;;;;;;4997823;28;20034;-84
2023/12/12 02:35:00;;;;;;;5.13;1.40;;;5.40;99.90;;;;;;4998042;28;20657;-85
2023/12/12 02:37:26;;;;;;;2.73;1.30;;;5.40;99.90;;;;;;4999740;28;20056;-85
2023/12/12 02:39:51;;;;;;;3.37;1.10;;;5.40;99.90;;;;;;5000435;28;20031;-85
2023/12/12 02:42:17;;;;;;;4.43;1.30;;;5.50;99.90;;;;;;5000527;28;20034;-85
2023/12/12 02:44:43;;;;;;;2.37;1.27;;;5.50;99.90;;;;;;5001129;28;20025;-84
2023/12/12 02:47:08;;;;;;;1.97;1.17;;;5.50;99.90;;;;;;5000766;28;20556;-85
2023/12/12 02:49:33;;;;;;;5.53;2.00;;;5.50;99.90;;;;;;5000310;28;20440;-85
2023/12/12 02:51:59;;;;;;;6.03;2.20;;;5.50;99.90;;;;;;5000039;28;20038;-85
2023/12/12 02:54:24;;;;;;;3.00;1.30;;;5.50;99.90;;;;;;5001418;28;20034;-84
2023/12/12 02:56:50;;;;;;;5.10;2.00;;;5.50;99.90;;;;;;5001093;28;20030;-85
2023/12/12 02:59:16;;;;;;;3.90;1.30;;;5.50;99.90;;;;;;4983540;28;20112;-85
2023/12/12 03:01:41;;;;;;;3.30;1.50;;;5.50;99.90;;;;;;4998998;28;20104;-85
2023/12/12 03:04:07;;;;;;;2.07;1.30;;;5.50;99.90;;;;;;4995859;28;20034;-85
2023/12/12 03:06:32;;;;;;;3.60;2.23;;;5.60;99.90;;;;;;5000004;28;21781;-85
2023/12/12 03:08:58;;;;;;;2.67;1.33;;;5.60;99.90;;;;;;4999315;28;20038;-86
2023/12/12 03:11:23;;;;;;;1.53;1.27;;;5.60;99.90;;;;;;5001359;28;20033;-85
2023/12/12 03:13:49;;;;;;;3.93;1.40;;;5.70;99.90;;;;;;5001332;28;20033;-85
2023/12/12 03:16:14;;;;;;;4.80;1.23;;;5.70;99.90;;;;;;4999586;28;20815;-85
2023/12/12 03:18:40;;;;;;;2.10;1.20;;;5.70;99.90;;;;;;5001628;28;20037;-84
2023/12/12 03:21:05;;;;;;;2.40;1.30;;;5.70;99.90;;;;;;5001375;28;20054;-85
2023/12/12 03:23:31;;;;;;;3.00;1.50;;;5.70;99.90;;;;;;4983330;28;20034;-85
2023/12/12 03:25:56;;;;;;;3.53;1.20;;;5.80;99.90;;;;;;5000652;28;20068;-85
2023/12/12 03:28:23;;;;;;;3.13;1.40;;;5.80;99.90;;;;;;5001618;28;20029;-85
2023/12/12 03:30:49;;;;;;;5.17;1.40;;;5.80;99.90;;;;;;4999099;28;20038;-85
2023/12/12 03:33:14;;;;;;;2.03;1.30;;;5.80;99.90;;;;;;4997072;28;20037;-85
2023/12/12 03:35:40;;;;;;;3.37;1.53;;;5.80;99.90;;;;;;5000182;28;20037;-85
2023/12/12 03:38:05;;;;;;;4.00;1.30;;;5.80;99.90;;;;;;5000503;28;20026;-84
2023/12/12 03:40:31;;;;;;;2.20;1.20;;;5.80;99.90;;;;;;4999026;28;20302;-85
2023/12/12 03:42:56;;;;;;;2.83;1.30;;;5.80;99.90;;;;;;5001349;28;20037;-85
2023/12/12 03:45:22;;;;;;;2.67;1.47;;;5.80;99.90;;;;;;4998635;28;20131;-84
2023/12/12 03:47:47;;;;;;;3.27;1.40;;;5.90;99.90;;;;;;4999089;28;20516;-85
2023/12/12 03:50:13;;;;;;;4.10;1.93;;;5.90;99.90;;;;;;5001998;28;20034;-85
2023/12/12 03:52:39;;;;;;;3.00;1.07;;;5.90;99.90;;;;;;5000447;28;20599;-85
2023/12/12 03:55:07;;;;;;;2.80;1.47;;;5.90;99.90;;;;;;4997361;28;20156;-84
2023/12/12 03:57:32;;;;;;;2.50;1.20;;;6.00;99.90;;;;;;5001885;28;20034;-85
2023/12/12 03:59:58;;;;;;;3.17;1.40;;;6.00;99.90;;;;;;4984511;28;20099;-84
2023/12/12 04:02:23;;;;;;;1.77;1.20;;;6.00;99.90;;;;;;5000226;28;20018;-84
2023/12/12 04:04:49;;;;;;;1.43;1.20;;;6.00;99.90;;;;;;4999893;28;20034;-84
2023/12/12 04:07:16;;;;;;;3.73;1.40;;;6.00;99.90;;;;;;4998332;28;20037;-85
2023/12/12 04:09:41;;;;;;;2.03;1.40;;;6.00;99.90;;;;;;4998828;28;20069;-84
2023/12/12 04:12:07;;;;;;;4.03;1.43;;;6.00;99.90;;;;;;4999148;28;21370;-84
2023/12/12 04:14:33;;;;;;;2.97;1.20;;;6.00;99.90;;;;;;4998096;28;20125;-85
2023/12/12 04:16:58;;;;;;;2.00;1.10;;;6.10;99.90;;;;;;4999179;28;20022;-84
2023/12/12 04:19:23;;;;;;;2.73;1.20;;;6.10;99.90;;;;;;4999760;28;20034;-85
2023/12/12 04:21:49;;;;;;;2.30;1.27;;;6.10;99.90;;;;;;4999352;28;20831;-85
2023/12/12 04:24:14;;;;;;;2.47;1.37;;;6.20;99.90;;;;;;4996430;28;20045;-84
2023/12/12 04:26:40;;;;;;;1.53;1.20;;;6.20;99.90;;;;;;4999205;28;20027;-85
2023/12/12 04:29:06;;;;;;;1.27;1.10;;;6.20;99.90;;;;;;4981527;28;20025;-85
2023/12/12 04:31:31;;;;;;;2.77;1.60;;;6.20;99.90;;;;;;4999933;28;20029;-85
2023/12/12 04:33:57;;;;;;;1.67;1.10;;;6.30;99.90;;;;;;5000256;28;20084;-85
2023/12/12 04:36:22;;;;;;;1.17;1.07;;;6.40;99.90;;;;;;4998661;28;20124;-85
2023/12/12 04:38:48;;;;;;;2.20;1.20;;;6.40;99.90;;;;;;4998981;28;20034;-85
2023/12/12 04:41:13;;;;;;;2.73;1.07;;;6.50;99.90;;;;;;4996437;28;20041;-85
2023/12/12 04:43:39;;;;;;;1.63;1.10;;;6.50;99.90;;;;;;5000761;28;20026;-85
2023/12/12 04:46:05;;;;;;;1.80;1.40;;;6.60;99.90;;;;;;5002697;28;20042;-85
2023/12/12 04:48:31;;;;;;;2.17;1.20;;;6.50;99.90;;;;;;4998538;28;20032;-85
2023/12/12 04:50:56;;;;;;;1.60;1.13;;;6.50;99.90;;;;;;4999894;28;20129;-85
2023/12/12 04:53:22;;;;;;;4.43;1.10;;;6.60;99.90;;;;;;4999348;28;20031;-85
2023/12/12 04:55:48;;;;;;;2.00;1.20;;;6.60;99.90;;;;;;4982549;28;20034;-86
2023/12/12 04:58:13;;;;;;;2.80;1.20;;;6.60;99.90;;;;;;4999014;28;20059;-85
2023/12/12 05:00:39;;;;;;;2.07;1.17;;;6.50;99.90;;;;;;4982380;28;20105;-85
2023/12/12 05:03:04;;;;;;;4.60;1.40;;;6.50;99.90;;;;;;5000196;28;20514;-85
2023/12/12 05:05:30;;;;;;;1.33;0.90;;;6.50;99.90;;;;;;5001845;28;20081;-85
2023/12/12 05:07:55;;;;;;;1.43;1.00;;;6.50;99.90;;;;;;4999716;28;20424;-85
2023/12/12 05:10:21;;;;;;;1.40;1.00;;;6.50;99.90;;;;;;5001479;28;20489;-85
2023/12/12 05:12:46;;;;;;;1.37;1.03;;;6.40;99.90;;;;;;4999976;28;20022;-85
2023/12/12 05:15:12;;;;;;;3.03;1.27;;;6.40;99.90;;;;;;5000991;28;20030;-85
2023/12/12 05:17:38;;;;;;;1.47;1.07;;;6.40;99.90;;;;;;5002939;28;20449;-85
2023/12/12 05:20:04;;;;;;;1.77;0.97;;;6.40;99.90;;;;;;5000578;28;20110;-85
2023/12/12 05:22:30;;;;;;;1.83;1.20;;;6.30;99.90;;;;;;5000092;28;20034;-85
2023/12/12 05:24:55;;;;;;;2.87;1.27;;;6.30;99.90;;;;;;4998694;28;20030;-85
2023/12/12 05:27:21;;;;;;;2.40;1.30;;;6.30;99.90;;;;;;4981013;28;20041;-85
2023/12/12 05:29:47;;;;;;;3.57;1.50;;;6.20;99.90;;;;;;4998206;28;20085;-85
2023/12/12 05:32:13;;;;;;;3.33;1.30;;;6.20;99.90;;;;;;4997801;28;20073;-85
2023/12/12 05:34:38;;;;;;;2.57;1.60;;;6.20;99.90;;;;;;4996264;28;20030;-84
2023/12/12 05:37:04;;;;;;;1.40;1.30;;;6.20;99.90;;;;;;4975913;28;20053;-85
2023/12/12 05:39:29;;;;;;;3.23;2.00;;;6.10;99.90;;;;;;4997051;28;20049;-84
2023/12/12 05:41:55;;;;;;;3.13;1.70;;;6.10;99.90;;;;;;5000781;28;20447;-84
2023/12/12 05:44:21;;;;;;;2.53;1.43;;;6.00;99.90;;;;;;5000755;28;20053;-85
2023/12/12 05:46:47;;;;;;;3.03;1.30;;;6.00;99.90;;;;;;4997540;28;20030;-85
2023/12/12 05:49:13;;;;;;;2.83;1.73;;;6.00;99.90;;;;;;4998326;28;20040;-85
2023/12/12 05:51:39;;;;;;;6.83;1.50;;;6.00;99.90;;;;;;4997921;28;21475;-85
2023/12/12 05:54:06;;;;;;;2.47;1.40;;;5.90;99.90;;;;;;4999579;28;20041;-85
2023/12/12 05:56:32;;;;;;;4.93;1.77;;;5.90;99.90;;;;;;5000563;28;20037;-84
2023/12/12 05:58:57;;;;;;;2.30;1.70;;;5.90;99.90;;;;;;5000117;28;20469;-86
2023/12/12 06:01:23;;;;;;;2.70;1.57;;;5.90;99.90;;;;;;4999792;28;20049;-86
2023/12/12 06:03:49;;;;;;;4.73;2.27;;;5.80;99.90;;;;;;4979470;28;20439;-85
2023/12/12 06:06:14;;;;;;;3.23;2.23;;;5.80;99.90;;;;;;5000382;28;20033;-85
2023/12/12 06:08:40;;;;;;;4.20;2.10;;;5.80;99.90;;;;;;5001569;28;20040;-83
2023/12/12 06:11:06;;;;;;;2.60;1.93;;;5.80;99.90;;;;;;5000030;28;20037;-84
2023/12/12 06:13:31;;;;;;;6.37;2.03;;;5.80;99.90;;;;;;5001936;28;21012;-86
2023/12/12 06:15:57;;;;;;;4.00;1.80;;;5.80;99.90;;;;;;5001062;28;20034;-87
2023/12/12 06:18:24;;;;;;;3.63;1.50;;;5.70;99.90;;;;;;5002029;28;20049;-84
2023/12/12 06:20:50;;;;;;;2.37;1.43;;;5.70;99.90;;;;;;5001934;28;20022;-85
2023/12/12 06:23:15;;;;;;;4.73;1.47;;;5.70;99.90;;;;;;5001720;28;20535;-83
2023/12/12 06:25:41;;;;;;;3.50;1.97;;;5.70;99.90;;;;;;5001428;28;20044;-84
2023/12/12 06:28:07;;;;;;;4.20;1.77;;;5.70;99.90;;;;;;5000591;28;20493;-84
2023/12/12 06:30:32;;;;;;;1.87;1.50;;;5.70;99.90;;;;;;4999663;28;20448;-84
2023/12/12 06:32:58;;;;;;;4.13;2.07;;;5.70;99.90;;;;;;5000349;28;20034;-85
2023/12/12 06:35:23;;;;;;;5.80;2.30;;;5.70;99.90;;;;;;5001014;28;20052;-86
2023/12/12 06:37:49;;;;;;;3.13;1.87;;;5.70;99.90;;;;;;4999829;28;20030;-85
2023/12/12 06:40:15;;;;;;;3.53;1.63;;;5.70;99.90;;;;;;5002141;28;20033;-85
2023/12/12 06:42:41;;;;;;;3.00;1.90;;;5.60;99.90;;;;;;4978699;28;21476;-84
2023/12/12 06:45:10;;;;;;;4.47;2.10;;;5.70;99.90;;;;;;5001305;28;20045;-84
2023/12/12 06:47:36;;;;;;;6.20;4.33;;;5.60;99.90;;;;;;5000255;28;20044;-84
2023/12/12 06:50:03;;;;;;;6.57;3.43;;;5.60;99.90;;;;;;4982889;28;20033;-85
2023/12/12 06:52:28;;;;;;;7.43;2.23;;;5.60;99.90;;;;;;5002544;28;20026;-88
2023/12/12 06:54:54;;;;;;;3.83;1.90;;;5.50;99.90;;;;;;5000133;28;20464;-85
2023/12/12 06:57:19;;;;;;;5.93;2.60;;;5.50;99.90;;;;;;4983460;28;20034;-84
2023/12/12 06:59:45;;;;;;;5.83;3.07;;;5.50;99.90;;;;;;4984410;28;20041;-84
2023/12/12 07:02:11;;;;;;;5.93;2.60;;;5.40;99.90;;;;;;4999636;28;20033;-86
2023/12/12 07:04:36;;;;;;;6.00;3.53;;;5.40;99.90;;;;;;4999137;28;20059;-86
2023/12/12 07:07:02;;;;;;;7.03;3.80;;;5.30;99.90;;;;;;5001278;28;20055;-87
2023/12/12 07:09:28;;;;;;;8.60;5.00;;;5.30;99.90;;;;;;5000933;28;20026;-85
2023/12/12 07:11:53;;;;;;;5.33;3.30;;;5.20;99.90;;;;;;5001854;28;20030;-85
2023/12/12 07:14:19;;;;;;;6.00;2.80;;;5.20;99.90;;;;;;5002074;28;20030;-84
2023/12/12 07:16:44;;;;;;;5.27;2.93;;;5.10;99.90;;;;;;5000514;28;20052;-85
2023/12/12 07:19:10;;;;;;;5.33;2.67;;;5.10;99.90;;;;;;5002743;28;20485;-86
2023/12/12 07:21:41;;;;;;;7.50;3.10;;;5.10;99.90;;;;;;5000432;28;20062;-86
2023/12/12 07:24:07;;;;;;;6.53;2.50;;;5.10;99.90;;;;;;5002404;28;20029;-84
2023/12/12 07:26:33;;;;;;;6.27;3.53;;;5.00;99.90;;;;;;5001122;28;20030;-84
2023/12/12 07:28:59;;;;;;;6.17;3.00;;;5.00;99.90;;;;;;5002350;28;20041;-84
2023/12/12 07:31:25;;;;;;;7.93;3.00;;;5.00;99.90;;;;;;4983996;28;20104;-87
2023/12/12 07:33:50;;;;;;;4.07;2.60;;;5.00;99.90;;;;;;5001665;28;20070;-88
2023/12/12 07:36:16;;;;;;;6.33;2.30;;;5.00;99.90;;;;;;5000197;28;20094;-84
2023/12/12 07:38:44;;;;;;;7.17;2.10;;;5.00;99.90;;;;;;5002010;28;20233;-85
2023/12/12 07:41:10;;;;;;;4.77;2.00;;;5.00;99.90;;;;;;5001121;28;20456;-85
2023/12/12 07:43:36;;;;;;;2.80;1.80;;;5.10;99.90;;;;;;5002687;28;20041;-85
2023/12/12 07:46:03;;;;;;;4.03;2.00;;;5.10;99.90;;;;;;5003882;28;20064;-84
2023/12/12 07:48:29;;;;;;;7.10;3.13;;;5.10;99.90;;;;;;5000674;28;20034;-85
2023/12/12 07:50:55;;;;;;;4.13;2.73;;;5.10;99.90;;;;;;5002205;28;20029;-85
2023/12/12 07:53:21;;;;;;;4.67;2.90;;;5.10;99.90;;;;;;5002020;28;20026;-88
2023/12/12 07:55:47;;;;;;;9.27;2.40;;;5.10;99.90;;;;;;5002801;28;20052;-87
2023/12/12 07:58:12;;;;;;;3.90;2.60;;;5.10;99.90;;;;;;5001077;28;20030;-84
2023/12/12 08:00:38;;;;;;;6.87;2.13;;;5.10;99.90;;;;;;5001289;28;20049;-84
2023/12/12 08:03:05;;;;;;;5.17;2.33;;;5.10;99.90;;;;;;4995278;28;20438;-85
2023/12/12 08:05:31;;;;;;;5.20;2.23;;;5.10;99.90;;;;;;4980672;28;20170;-84
2023/12/12 08:07:59;;;;;;;6.60;2.40;;;5.10;99.90;;;;;;4996480;28;20062;-82
2023/12/12 08:10:25;;;;;;;4.27;2.50;;;5.10;99.90;;;;;;4993966;28;21360;-83
2023/12/12 08:12:50;;;;;;;4.70;1.83;;;5.10;99.90;;;;;;4995144;28;20114;-82
2023/12/12 08:15:16;;;;;;;3.83;2.07;;;5.20;99.90;;;;;;4996991;28;20022;-83
2023/12/12 08:17:41;;;;;;;4.10;2.00;;;5.20;99.90;;;;;;4996838;28;20040;-83
2023/12/12 08:20:07;;;;;;;4.67;2.80;;;5.20;99.90;;;;;;4997333;28;20057;-82
2023/12/12 08:22:33;;;;;;;4.53;2.00;;;5.20;99.90;;;;;;4998093;28;20054;-81
2023/12/12 08:25:00;;;;;;;3.00;2.17;;;5.20;99.90;;;;;;4999929;28;20065;-82
2023/12/12 08:27:27;;;;;;;2.93;2.10;;;5.30;99.90;;;;;;4995094;28;20034;-83
2023/12/12 08:29:52;;;;;;;4.77;2.30;;;5.30;99.90;;;;;;4995355;28;20053;-82
2023/12/12 08:32:18;;;;;;;3.87;1.97;;;5.30;99.90;;;;;;4997109;28;20117;-81
2023/12/12 08:34:43;;;;;;;3.87;2.70;;;5.30;99.90;;;;;;4997199;28;20030;-83
2023/12/12 08:37:09;;;;;;;3.23;1.90;;;5.30;99.90;;;;;;4996418;28;20037;-82
2023/12/12 08:39:34;;;;;;;3.53;1.80;;;5.30;99.90;;;;;;4999889;28;21463;-82
2023/12/12 08:42:00;;;;;;;3.03;1.53;;;5.40;99.90;;;;;;4999509;28;20031;-81
2023/12/12 08:44:26;;;;;;;4.53;2.13;;;5.40;99.90;;;;;;4982878;28;20034;-82
2023/12/12 08:46:51;;;;;;;3.63;1.80;;;5.40;99.90;;;;;;5000385;28;20030;-82
2023/12/12 08:49:19;;;;;;;3.20;1.70;;;5.50;99.90;;;;;;5001074;28;20496;-82
2023/12/12 08:51:45;;;;;;;3.13;1.50;;;5.50;99.90;;;;;;4999744;28;20512;-82
2023/12/12 08:54:11;;;;;;;3.47;1.70;;;5.50;99.90;;;;;;4999550;28;20029;-82
2023/12/12 08:56:38;;;;;;;5.10;1.90;;;5.60;99.90;;;;;;5000146;28;20165;-82
2023/12/12 08:59:04;;;;;;;2.77;1.53;;;5.60;99.90;;;;;;4999306;28;20022;-82
2023/12/12 09:01:29;;;;;;;2.83;1.40;;;5.70;99.90;;;;;;5000793;28;20878;-82
2023/12/12 09:03:56;;;;;;;3.77;1.53;;;5.70;99.90;;;;;;5000738;28;20041;-82
2023/12/12 09:06:22;;;;;;;3.43;1.60;;;5.80;99.90;;;;;;5000342;28;20025;-82
2023/12/12 09:08:47;;;;;;;3.67;1.90;;;5.80;99.90;;;;;;4999627;28;20045;-82
2023/12/12 09:11:13;;;;;;;3.23;1.83;;;5.90;99.90;;;;;;5000202;28;20057;-82
2023/12/12 09:13:40;;;;;;;3.10;1.80;;;5.90;99.90;;;;;;4999515;28;20022;-82
2023/12/12 09:16:06;;;;;;;3.07;1.63;;;6.00;99.90;;;;;;5000917;28;20049;-82
2023/12/12 09:18:31;;;;;;;2.43;1.47;;;6.00;99.90;;;;;;4999638;28;21203;-81
2023/12/12 09:20:57;;;;;;;2.20;1.30;;;6.10;99.90;;;;;;5000502;28;20133;-82
2023/12/12 09:23:22;;;;;;;4.13;1.70;;;6.10;99.90;;;;;;5000440;28;20037;-81
2023/12/12 09:25:49;;;;;;;4.20;1.80;;;6.10;99.90;;;;;;5000423;28;20437;-83
2023/12/12 09:28:14;;;;;;;4.57;1.77;;;6.20;99.90;;;;;;4999996;28;20034;-82
2023/12/12 09:30:40;;;;;;;5.63;4.10;;;6.20;99.90;;;;;;4997395;28;20603;-81
2023/12/12 09:33:05;;;;;;;5.73;2.30;;;6.20;99.90;;;;;;4999229;28;20022;-81
2023/12/12 09:35:34;;;;;;;3.93;1.70;;;6.20;99.90;;;;;;5000842;28;20698;-81
2023/12/12 09:37:59;;;;;;;2.93;1.87;;;6.30;99.90;;;;;;5001091;28;20033;-82
2023/12/12 09:40:25;;;;;;;4.10;1.80;;;6.30;99.90;;;;;;4986417;28;20440;-82
2023/12/12 09:42:53;;;;;;;4.13;1.90;;;6.30;99.90;;;;;;5001763;28;20209;-82
2023/12/12 09:45:23;;;;;;;2.53;1.53;;;6.40;99.90;;;;;;5000045;28;20053;-81
2023/12/12 09:47:50;;;;;;;5.70;1.80;;;6.50;99.90;;;;;;4981580;28;20021;-83
2023/12/12 09:50:16;;;;;;;3.90;2.10;;;6.50;99.90;;;;;;4997503;28;20388;-81
2023/12/12 09:52:44;;;;;;;3.83;1.80;;;6.60;99.90;;;;;;4999410;28;20030;-81
2023/12/12 09:55:10;;;;;;;3.93;2.23;;;6.70;99.90;;;;;;4998697;28;20030;-82
2023/12/12 09:57:36;;;;;;;6.57;2.37;;;6.70;99.90;;;;;;4998801;28;20045;-81
2023/12/12 10:00:03;;;;;;;9.63;4.53;;;6.80;99.90;;;;;;4998216;28;20034;-82
2023/12/12 10:02:36;;;;;;;7.50;3.73;;;6.80;99.90;;;;;;4999282;28;20108;-82
2023/12/12 10:05:04;;;;;;;10.17;7.47;;;6.80;99.90;;;;;;4990830;28;20440;-81
2023/12/12 10:07:31;;;;;;;10.77;6.23;;;6.80;99.90;;;;;;4989034;28;20042;-84
2023/12/12 10:09:56;;;;;;;6.13;3.00;;;6.80;99.90;;;;;;4988162;28;20033;-81
2023/12/12 10:12:22;;;;;;;6.03;2.67;;;6.70;99.90;;;;;;4992754;28;20041;-85
2023/12/12 10:14:48;;;;;;;5.60;2.90;;;6.70;99.90;;;;;;4991475;28;20057;-82
2023/12/12 10:17:14;;;;;;;5.20;2.00;;;6.80;99.90;;;;;;4987964;28;20037;-82
2023/12/12 10:19:40;;;;;;;4.83;2.17;;;6.80;99.90;;;;;;4988133;28;20026;-84
2023/12/12 10:22:08;;;;;;;4.53;2.40;;;6.80;99.90;;;;;;4971643;28;20037;-84
2023/12/12 10:24:35;;;;;;;5.03;2.23;;;6.90;99.90;;;;;;4989262;28;20046;-83
2023/12/12 10:27:01;;;;;;;4.93;2.10;;;6.90;99.90;;;;;;4988012;28;20030;-82
2023/12/12 10:29:27;;;;;;;4.83;1.87;;;6.90;99.90;;;;;;4989573;28;20828;-86
2023/12/12 10:31:53;;;;;;;3.00;2.00;;;6.90;99.90;;;;;;4989789;28;20090;-82
2023/12/12 10:34:23;;;;;;;6.87;2.37;;;7.00;99.90;;;;;;4989739;28;20029;-86
2023/12/12 10:36:49;;;;;;;4.37;2.20;;;7.00;99.90;;;;;;4986795;28;20026;-85
2023/12/12 10:39:15;;;;;;;3.60;2.03;;;7.00;99.90;;;;;;4988121;28;20042;-75
2023/12/12 10:41:57;;;;;;;4.67;2.30;;;7.00;99.90;;;;;;4987295;28;20109;-82
2023/12/12 10:44:31;;;;;;;6.30;1.90;;;7.00;99.90;;;;;;4988021;28;20186;-82
2023/12/12 10:46:59;;;;;;;4.32;1.95;;;7.00;99.90;;;;;;4986044;28;20517;-84
2023/12/12 10:49:31;;;;;;;5.13;1.70;;;7.00;99.90;;;;;;4987656;28;20030;-84
2023/12/12 10:51:58;;;;;;;5.73;1.97;;;7.10;99.90;;;;;;4989762;28;20030;-81
2023/12/12 10:54:26;;;;;;;5.20;2.00;;;7.10;99.90;;;;;;4989758;28;20053;-81
2023/12/12 10:56:53;;;;;;;6.03;1.87;;;7.00;99.90;;;;;;4986336;28;20974;-82
2023/12/12 10:59:21;;;;;;;5.67;2.10;;;7.00;99.90;;;;;;4988247;28;20034;-81
2023/12/12 11:01:47;;;;;;;3.50;1.70;;;7.00;99.90;;;;;;4993667;28;20077;-74
2023/12/12 11:04:17;;;;;;;6.87;2.10;;;7.00;99.90;;;;;;4993982;28;20034;-74
2023/12/12 11:06:43;;;;;;;6.70;1.97;;;7.00;99.90;;;;;;4992693;28;20030;-74
2023/12/12 11:09:14;;;;;;;9.20;2.77;;;7.00;99.90;;;;;;4996791;28;20033;-81
2023/12/12 11:11:44;;;;;;;5.93;2.10;;;7.00;99.90;;;;;;4995794;28;20785;-81
2023/12/12 11:14:10;;;;;;;5.53;2.87;;;7.00;99.90;;;;;;4997350;28;20038;-81
2023/12/12 11:16:37;;;;;;;8.67;4.43;;;6.90;99.90;;;;;;4997606;28;20034;-81
2023/12/12 11:19:03;;;;;;;8.30;2.93;;;6.90;99.90;;;;;;4996191;28;20029;-81
2023/12/12 11:21:48;;;;;;;8.83;3.17;;;6.80;99.90;;;;;;4997806;28;20037;-81
2023/12/12 11:24:15;;;;;;;;;;;6.80;99.90;;;;;;4980507;28;20076;-81
2023/12/12 11:26:45;;;;;;;7.10;3.70;;;6.80;99.90;;;;;;4998204;28;19918;-82
2023/12/12 11:29:13;;;;;;;7.30;3.50;;;6.70;99.90;;;;;;4995931;28;20060;-81
2023/12/12 11:31:59;;;;;;;7.63;3.60;;;6.70;99.90;;;;;;4996614;28;20041;-81
2023/12/12 11:34:25;;;;;;;9.90;4.13;;;6.70;99.90;;;;;;4998365;28;20041;-81
2023/12/12 11:36:57;;;;;;;11.20;5.17;;;6.60;99.90;;;;;;4996695;28;20026;-81
2023/12/12 11:39:29;;;;;;;8.97;4.43;;;6.60;99.90;;;;;;4994450;28;20104;-81
2023/12/12 11:41:56;;;;;;;9.53;5.80;;;6.60;99.90;;;;;;4997229;28;20048;-81
2023/12/12 11:44:22;;;;;;;11.43;5.17;;;6.60;99.90;;;;;;4996015;28;20509;-81
2023/12/12 11:46:50;;;;;;;6.97;4.40;;;6.60;99.90;;;;;;4995069;28;20034;-81
2023/12/12 11:49:23;;;;;;;9.07;4.57;;;6.60;99.90;;;;;;4995490;28;20619;-80
2023/12/12 11:51:50;;;;;;;7.70;4.30;;;6.60;99.90;;;;;;4996902;28;20030;-82
2023/12/12 11:54:23;;;;;;;6.30;3.93;;;6.60;99.90;;;;;;4998713;28;20049;-81
2023/12/12 11:56:56;;;;;;;5.07;3.40;;;6.60;99.90;;;;;;4996208;28;20098;-81
2023/12/12 11:59:23;;;;;;;4.43;3.23;;;6.60;99.90;;;;;;4991812;28;20301;-82
2023/12/12 12:01:49;;;;;;;3.73;2.70;;;6.60;99.90;;;;;;4986196;28;20065;-82
2023/12/12 12:04:15;;;;;;;3.40;2.10;;;6.60;99.90;;;;;;4987760;28;20038;-81
2023/12/12 12:06:42;;;;;;;5.40;2.60;;;6.70;99.90;;;;;;4986505;28;20022;-81
2023/12/12 12:09:09;;;;;;;6.20;2.70;;;6.60;99.90;;;;;;4986786;28;20034;-81
2023/12/12 12:11:46;;;;;;;4.63;2.50;;;6.70;99.90;;;;;;4988190;28;20031;-83
2023/12/12 12:14:13;;;;;;;8.50;2.40;;;6.60;99.90;;;;;;4992253;28;20044;-81
2023/12/12 12:16:39;;;;;;;6.80;2.60;;;6.60;99.90;;;;;;4989481;28;20117;-81
2023/12/12 12:19:31;;;;;;;5.23;2.87;;;6.70;99.90;;;;;;4992705;28;20143;-80
2023/12/12 12:22:02;;;;;;;8.27;2.53;;;6.70;99.90;;;;;;4985842;28;21394;-81
2023/12/12 12:24:29;;;;;;;5.53;2.33;;;6.70;99.90;;;;;;4990311;28;20044;-81
2023/12/12 12:26:55;;;;;;;6.57;2.60;;;6.80;99.90;;;;;;4990559;28;20030;-81
2023/12/12 12:29:20;;;;;;;3.20;2.07;;;6.80;99.90;;;;;;4992430;28;20029;-81
2023/12/12 12:31:46;;;;;;;11.50;2.53;;;6.80;99.90;;;;;;4992186;28;20109;-81
2023/12/12 12:34:24;;;;;;;6.97;2.10;;;6.90;99.90;;;;;;4991001;28;20041;-81
2023/12/12 12:36:51;;;;;;;5.10;2.13;;;6.90;99.90;;;;;;4990236;28;20029;-81
2023/12/12 12:39:18;;;;;;;6.10;1.80;;;6.90;99.90;;;;;;4997857;28;20056;-80
2023/12/12 12:41:46;;;;;;;2.93;1.73;;;7.00;99.90;;;;;;5000395;28;20026;-81
2023/12/12 12:44:12;;;;;;;4.20;1.50;;;7.00;99.90;;;;;;4999762;28;20038;-80
2023/12/12 12:46:37;;;;;;;5.03;1.90;;;7.00;99.90;;;;;;4999026;28;20032;-80
2023/12/12 12:49:03;;;;;;;4.33;1.63;;;7.10;99.90;;;;;;4998183;28;20030;-72
2023/12/12 12:51:29;;;;;;;2.37;1.30;;;7.20;99.90;;;;;;5000272;28;20515;-81
2023/12/12 12:53:55;;;;;;;3.90;1.67;;;7.20;99.90;;;;;;4999722;28;21691;-81